sensor_id;sensor_type;location;lat;lon;timestamp;pressure;altitude;pressure_sealevel;temperature;humidity
37368;BME280;23240;43.210;27.910;2023-02-15T00:00:50;102294.53;;;5.10;100.00
37368;BME280;23240;43.210;27.910;2023-02-15T00:03:16;102299.00;;;5.10;100.00
37368;BME280;23240;43.210;27.910;2023-02-15T00:05:41;102295.41;;;5.11;100.00
37368;BME280;23240;43.210;27.910;2023-02-15T00:08:07;102304.94;;;5.16;100.00
37368;BME280;23240;43.210;27.910;2023-02-15T00:10:32;102304.84;;;5.20;100.00
37368;BME280;23240;43.210;27.910;2023-02-15T00:12:57;102293.53;;;5.14;100.00
37368;BME280;23240;43.210;27.910;2023-02-15T00:15:24;102305.16;;;5.10;100.00
37368;BME280;23240;43.210;27.910;2023-02-15T00:17:50;102295.31;;;5.14;100.00
37368;BME280;23240;43.210;27.910;2023-02-15T00:20:16;102310.47;;;5.10;100.00
37368;BME280;23240;43.210;27.910;2023-02-15T00:22:41;102294.03;;;4.99;100.00
37368;BME280;23240;43.210;27.910;2023-02-15T00:25:07;102298.53;;;4.97;100.00
37368;BME280;23240;43.210;27.910;2023-02-15T00:27:32;102297.09;;;4.87;100.00
37368;BME280;23240;43.210;27.910;2023-02-15T00:29:58;102285.66;;;4.85;100.00
37368;BME280;23240;43.210;27.910;2023-02-15T00:32:23;102293.88;;;4.77;100.00
37368;BME280;23240;43.210;27.910;2023-02-15T00:34:48;102294.03;;;4.73;100.00
37368;BME280;23240;43.210;27.910;2023-02-15T00:37:14;102296.78;;;4.70;100.00
37368;BME280;23240;43.210;27.910;2023-02-15T00:39:39;102299.75;;;4.60;100.00
37368;BME280;23240;43.210;27.910;2023-02-15T00:42:04;102293.66;;;4.57;100.00
37368;BME280;23240;43.210;27.910;2023-02-15T00:44:30;102298.09;;;4.56;100.00
37368;BME280;23240;43.210;27.910;2023-02-15T00:46:55;102288.41;;;4.55;100.00
37368;BME280;23240;43.210;27.910;2023-02-15T00:49:20;102288.56;;;4.49;100.00
37368;BME280;23240;43.210;27.910;2023-02-15T00:51:46;102284.31;;;4.45;100.00
37368;BME280;23240;43.210;27.910;2023-02-15T00:54:11;102286.97;;;4.44;100.00
37368;BME280;23240;43.210;27.910;2023-02-15T00:56:36;102283.88;;;4.31;100.00
37368;BME280;23240;43.210;27.910;2023-02-15T00:59:02;102292.84;;;4.27;100.00
37368;BME280;23240;43.210;27.910;2023-02-15T01:01:27;102291.13;;;4.24;100.00
37368;BME280;23240;43.210;27.910;2023-02-15T01:03:52;102280.78;;;4.17;100.00
37368;BME280;23240;43.210;27.910;2023-02-15T01:06:18;102287.06;;;4.12;100.00
37368;BME280;23240;43.210;27.910;2023-02-15T01:08:44;102289.00;;;4.07;100.00
37368;BME280;23240;43.210;27.910;2023-02-15T01:11:11;102274.63;;;4.15;100.00
37368;BME280;23240;43.210;27.910;2023-02-15T01:13:37;102285.34;;;4.11;100.00
37368;BME280;23240;43.210;27.910;2023-02-15T01:16:03;102276.66;;;4.06;100.00
37368;BME280;23240;43.210;27.910;2023-02-15T01:18:28;102285.69;;;3.99;100.00
37368;BME280;23240;43.210;27.910;2023-02-15T01:20:55;102283.81;;;4.03;100.00
37368;BME280;23240;43.210;27.910;2023-02-15T01:23:20;102294.75;;;3.92;100.00
37368;BME280;23240;43.210;27.910;2023-02-15T01:25:45;102301.69;;;3.96;100.00
37368;BME280;23240;43.210;27.910;2023-02-15T01:28:11;102297.16;;;4.00;100.00
37368;BME280;23240;43.210;27.910;2023-02-15T01:30:36;102305.44;;;3.89;100.00
37368;BME280;23240;43.210;27.910;2023-02-15T01:33:01;102294.69;;;3.94;100.00
37368;BME280;23240;43.210;27.910;2023-02-15T01:35:27;102291.25;;;3.90;100.00
37368;BME280;23240;43.210;27.910;2023-02-15T01:37:53;102278.97;;;3.88;100.00
37368;BME280;23240;43.210;27.910;2023-02-15T01:40:19;102293.19;;;3.85;100.00
37368;BME280;23240;43.210;27.910;2023-02-15T01:42:44;102284.50;;;3.80;100.00
37368;BME280;23240;43.210;27.910;2023-02-15T01:45:26;102283.69;;;3.78;100.00
37368;BME280;23240;43.210;27.910;2023-02-15T01:47:54;102281.06;;;3.76;100.00
37368;BME280;23240;43.210;27.910;2023-02-15T01:53:01;102286.53;;;3.70;100.00
37368;BME280;23240;43.210;27.910;2023-02-15T01:55:33;102285.66;;;3.70;100.00
37368;BME280;23240;43.210;27.910;2023-02-15T01:57:59;102297.19;;;3.69;100.00
37368;BME280;23240;43.210;27.910;2023-02-15T02:00:25;102290.22;;;3.65;100.00
37368;BME280;23240;43.210;27.910;2023-02-15T02:02:51;102287.66;;;3.61;100.00
37368;BME280;23240;43.210;27.910;2023-02-15T02:05:18;102275.38;;;3.59;100.00
37368;BME280;23240;43.210;27.910;2023-02-15T02:07:44;102292.16;;;3.59;100.00
37368;BME280;23240;43.210;27.910;2023-02-15T02:10:12;102284.28;;;3.56;100.00
37368;BME280;23240;43.210;27.910;2023-02-15T02:12:38;102286.22;;;3.50;100.00
37368;BME280;23240;43.210;27.910;2023-02-15T02:15:05;102281.00;;;3.47;100.00
37368;BME280;23240;43.210;27.910;2023-02-15T02:17:35;102287.28;;;3.43;100.00
37368;BME280;23240;43.210;27.910;2023-02-15T02:25:34;102307.16;;;3.26;100.00
37368;BME280;23240;43.210;27.910;2023-02-15T02:38:46;102311.09;;;3.12;100.00
37368;BME280;23240;43.210;27.910;2023-02-15T02:41:30;102311.25;;;3.05;100.00
37368;BME280;23240;43.210;27.910;2023-02-15T02:49:00;102319.69;;;2.86;100.00
37368;BME280;23240;43.210;27.910;2023-02-15T02:51:26;102317.22;;;2.78;100.00
37368;BME280;23240;43.210;27.910;2023-02-15T02:53:51;102320.66;;;2.81;100.00
37368;BME280;23240;43.210;27.910;2023-02-15T02:58:48;102323.38;;;2.78;100.00
37368;BME280;23240;43.210;27.910;2023-02-15T03:01:15;102327.00;;;2.74;100.00
37368;BME280;23240;43.210;27.910;2023-02-15T03:03:51;102329.75;;;2.70;100.00
37368;BME280;23240;43.210;27.910;2023-02-15T03:06:21;102325.63;;;2.58;100.00
37368;BME280;23240;43.210;27.910;2023-02-15T03:08:54;102332.59;;;2.61;100.00
37368;BME280;23240;43.210;27.910;2023-02-15T03:11:22;102326.50;;;2.58;100.00
37368;BME280;23240;43.210;27.910;2023-02-15T03:13:48;102327.56;;;2.50;100.00
37368;BME280;23240;43.210;27.910;2023-02-15T03:16:13;102338.19;;;2.48;100.00
37368;BME280;23240;43.210;27.910;2023-02-15T03:21:44;102340.72;;;2.53;100.00
37368;BME280;23240;43.210;27.910;2023-02-15T03:24:14;102335.41;;;2.54;100.00
37368;BME280;23240;43.210;27.910;2023-02-15T03:26:43;102335.44;;;2.51;100.00
37368;BME280;23240;43.210;27.910;2023-02-15T03:29:10;102337.03;;;2.60;100.00
37368;BME280;23240;43.210;27.910;2023-02-15T03:31:38;102340.69;;;2.54;100.00
37368;BME280;23240;43.210;27.910;2023-02-15T03:34:06;102344.91;;;2.63;100.00
37368;BME280;23240;43.210;27.910;2023-02-15T03:41:31;102334.59;;;2.88;100.00
37368;BME280;23240;43.210;27.910;2023-02-15T03:44:04;102349.47;;;2.94;100.00
37368;BME280;23240;43.210;27.910;2023-02-15T03:46:34;102348.44;;;2.99;100.00
37368;BME280;23240;43.210;27.910;2023-02-15T03:49:03;102337.94;;;2.96;100.00
37368;BME280;23240;43.210;27.910;2023-02-15T03:51:33;102349.25;;;3.03;100.00
37368;BME280;23240;43.210;27.910;2023-02-15T03:54:04;102355.56;;;2.97;100.00
37368;BME280;23240;43.210;27.910;2023-02-15T03:56:32;102357.44;;;2.92;100.00
37368;BME280;23240;43.210;27.910;2023-02-15T03:58:58;102359.19;;;2.93;100.00
37368;BME280;23240;43.210;27.910;2023-02-15T04:01:47;102352.75;;;3.03;100.00
37368;BME280;23240;43.210;27.910;2023-02-15T04:04:26;102354.53;;;3.03;100.00
37368;BME280;23240;43.210;27.910;2023-02-15T04:06:53;102355.63;;;2.94;100.00
37368;BME280;23240;43.210;27.910;2023-02-15T04:09:18;102356.38;;;2.99;100.00
37368;BME280;23240;43.210;27.910;2023-02-15T04:12:03;102356.63;;;2.90;100.00
37368;BME280;23240;43.210;27.910;2023-02-15T04:14:28;102357.63;;;2.84;100.00
37368;BME280;23240;43.210;27.910;2023-02-15T04:17:12;102361.28;;;2.79;100.00
37368;BME280;23240;43.210;27.910;2023-02-15T04:19:37;102359.50;;;2.81;100.00
37368;BME280;23240;43.210;27.910;2023-02-15T04:22:21;102367.50;;;2.78;100.00
37368;BME280;23240;43.210;27.910;2023-02-15T04:25:05;102369.41;;;2.71;100.00
37368;BME280;23240;43.210;27.910;2023-02-15T04:27:44;102368.50;;;2.72;100.00
37368;BME280;23240;43.210;27.910;2023-02-15T04:30:10;102377.31;;;2.73;100.00
37368;BME280;23240;43.210;27.910;2023-02-15T04:32:36;102380.88;;;2.70;100.00
37368;BME280;23240;43.210;27.910;2023-02-15T04:35:01;102376.41;;;2.74;100.00
37368;BME280;23240;43.210;27.910;2023-02-15T04:37:27;102388.66;;;2.78;100.00
37368;BME280;23240;43.210;27.910;2023-02-15T04:39:53;102382.66;;;2.70;100.00
37368;BME280;23240;43.210;27.910;2023-02-15T04:42:18;102385.25;;;2.73;100.00
37368;BME280;23240;43.210;27.910;2023-02-15T04:44:43;102385.16;;;2.77;100.00
37368;BME280;23240;43.210;27.910;2023-02-15T04:47:09;102393.13;;;2.76;100.00
37368;BME280;23240;43.210;27.910;2023-02-15T04:49:34;102390.44;;;2.77;100.00
37368;BME280;23240;43.210;27.910;2023-02-15T04:51:59;102393.94;;;2.78;100.00
37368;BME280;23240;43.210;27.910;2023-02-15T04:54:25;102400.97;;;2.80;100.00
37368;BME280;23240;43.210;27.910;2023-02-15T04:56:50;102406.22;;;2.82;100.00
37368;BME280;23240;43.210;27.910;2023-02-15T04:59:15;102408.81;;;2.83;100.00
37368;BME280;23240;43.210;27.910;2023-02-15T05:01:41;102417.00;;;2.73;100.00
37368;BME280;23240;43.210;27.910;2023-02-15T05:04:06;102413.28;;;2.81;100.00
37368;BME280;23240;43.210;27.910;2023-02-15T05:06:32;102424.03;;;2.74;100.00
37368;BME280;23240;43.210;27.910;2023-02-15T05:08:57;102428.50;;;2.72;100.00
37368;BME280;23240;43.210;27.910;2023-02-15T05:11:24;102432.88;;;2.73;100.00
37368;BME280;23240;43.210;27.910;2023-02-15T05:13:49;102423.22;;;2.70;100.00
37368;BME280;23240;43.210;27.910;2023-02-15T05:16:15;102433.75;;;2.73;100.00
37368;BME280;23240;43.210;27.910;2023-02-15T05:18:40;102428.50;;;2.72;100.00
37368;BME280;23240;43.210;27.910;2023-02-15T05:21:05;102440.88;;;2.70;100.00
37368;BME280;23240;43.210;27.910;2023-02-15T05:23:30;102437.22;;;2.75;100.00
37368;BME280;23240;43.210;27.910;2023-02-15T05:25:56;102445.97;;;2.79;100.00
37368;BME280;23240;43.210;27.910;2023-02-15T05:28:40;102449.44;;;2.82;100.00
37368;BME280;23240;43.210;27.910;2023-02-15T05:31:12;102459.00;;;2.88;100.00
37368;BME280;23240;43.210;27.910;2023-02-15T05:33:38;102451.88;;;2.92;100.00
37368;BME280;23240;43.210;27.910;2023-02-15T05:36:04;102453.47;;;2.99;100.00
37368;BME280;23240;43.210;27.910;2023-02-15T05:38:30;102455.94;;;3.06;100.00
37368;BME280;23240;43.210;27.910;2023-02-15T05:40:55;102461.78;;;3.21;100.00
37368;BME280;23240;43.210;27.910;2023-02-15T05:43:21;102470.44;;;3.29;100.00
37368;BME280;23240;43.210;27.910;2023-02-15T05:45:47;102466.88;;;3.28;100.00
37368;BME280;23240;43.210;27.910;2023-02-15T05:48:12;102473.16;;;3.26;100.00
37368;BME280;23240;43.210;27.910;2023-02-15T05:50:37;102473.09;;;3.29;100.00
37368;BME280;23240;43.210;27.910;2023-02-15T05:53:03;102476.41;;;3.37;100.00
37368;BME280;23240;43.210;27.910;2023-02-15T05:55:28;102468.16;;;3.49;100.00
37368;BME280;23240;43.210;27.910;2023-02-15T05:57:53;102474.28;;;3.51;100.00
37368;BME280;23240;43.210;27.910;2023-02-15T06:00:19;102469.72;;;3.58;100.00
37368;BME280;23240;43.210;27.910;2023-02-15T06:02:44;102475.91;;;3.58;100.00
37368;BME280;23240;43.210;27.910;2023-02-15T06:05:09;102474.06;;;3.60;100.00
37368;BME280;23240;43.210;27.910;2023-02-15T06:07:35;102492.56;;;3.62;100.00
37368;BME280;23240;43.210;27.910;2023-02-15T06:10:00;102484.38;;;3.73;100.00
37368;BME280;23240;43.210;27.910;2023-02-15T06:12:25;102496.59;;;3.78;100.00
37368;BME280;23240;43.210;27.910;2023-02-15T06:14:51;102497.50;;;3.77;100.00
37368;BME280;23240;43.210;27.910;2023-02-15T06:17:16;102500.34;;;3.70;100.00
37368;BME280;23240;43.210;27.910;2023-02-15T06:19:42;102506.50;;;3.70;100.00
37368;BME280;23240;43.210;27.910;2023-02-15T06:22:07;102510.94;;;3.70;100.00
37368;BME280;23240;43.210;27.910;2023-02-15T06:24:32;102507.03;;;3.84;100.00
37368;BME280;23240;43.210;27.910;2023-02-15T06:26:58;102502.19;;;4.02;100.00
37368;BME280;23240;43.210;27.910;2023-02-15T06:29:23;102497.44;;;4.13;100.00
37368;BME280;23240;43.210;27.910;2023-02-15T06:31:48;102500.78;;;4.20;100.00
37368;BME280;23240;43.210;27.910;2023-02-15T06:34:14;102502.38;;;4.27;100.00
37368;BME280;23240;43.210;27.910;2023-02-15T06:36:39;102502.03;;;4.39;100.00
37368;BME280;23240;43.210;27.910;2023-02-15T06:39:04;102503.63;;;4.46;100.00
37368;BME280;23240;43.210;27.910;2023-02-15T06:41:30;102501.78;;;4.48;100.00
37368;BME280;23240;43.210;27.910;2023-02-15T06:43:55;102499.06;;;4.51;100.00
37368;BME280;23240;43.210;27.910;2023-02-15T06:46:21;102510.41;;;4.56;100.00
37368;BME280;23240;43.210;27.910;2023-02-15T06:48:46;102504.97;;;4.61;100.00
37368;BME280;23240;43.210;27.910;2023-02-15T06:51:11;102514.41;;;4.71;100.00
37368;BME280;23240;43.210;27.910;2023-02-15T06:53:37;102507.44;;;4.97;100.00
37368;BME280;23240;43.210;27.910;2023-02-15T06:56:03;102513.72;;;5.24;100.00
37368;BME280;23240;43.210;27.910;2023-02-15T06:58:31;102509.28;;;5.52;100.00
37368;BME280;23240;43.210;27.910;2023-02-15T07:00:56;102507.22;;;5.60;100.00
37368;BME280;23240;43.210;27.910;2023-02-15T07:03:22;102534.13;;;5.51;100.00
37368;BME280;23240;43.210;27.910;2023-02-15T07:05:47;102513.16;;;5.42;100.00
37368;BME280;23240;43.210;27.910;2023-02-15T07:08:13;102519.41;;;5.39;100.00
37368;BME280;23240;43.210;27.910;2023-02-15T07:10:39;102508.53;;;5.47;100.00
37368;BME280;23240;43.210;27.910;2023-02-15T07:13:04;102507.13;;;5.63;100.00
37368;BME280;23240;43.210;27.910;2023-02-15T07:15:29;102521.47;;;5.84;100.00
37368;BME280;23240;43.210;27.910;2023-02-15T07:17:56;102521.75;;;6.03;100.00
37368;BME280;23240;43.210;27.910;2023-02-15T07:20:22;102518.16;;;6.06;100.00
37368;BME280;23240;43.210;27.910;2023-02-15T07:22:48;102528.31;;;6.20;100.00
37368;BME280;23240;43.210;27.910;2023-02-15T07:25:13;102529.81;;;6.27;100.00
37368;BME280;23240;43.210;27.910;2023-02-15T07:27:39;102533.19;;;6.07;100.00
37368;BME280;23240;43.210;27.910;2023-02-15T07:30:05;102520.66;;;6.10;100.00
37368;BME280;23240;43.210;27.910;2023-02-15T07:32:31;102533.09;;;6.10;100.00
37368;BME280;23240;43.210;27.910;2023-02-15T07:34:56;102545.47;;;6.11;100.00
37368;BME280;23240;43.210;27.910;2023-02-15T07:37:22;102528.03;;;6.27;98.49
37368;BME280;23240;43.210;27.910;2023-02-15T07:39:47;102528.31;;;6.44;96.70
37368;BME280;23240;43.210;27.910;2023-02-15T07:42:12;102528.03;;;6.76;94.33
37368;BME280;23240;43.210;27.910;2023-02-15T07:44:38;102521.22;;;6.68;94.49
37368;BME280;23240;43.210;27.910;2023-02-15T07:47:03;102526.72;;;6.64;95.33
37368;BME280;23240;43.210;27.910;2023-02-15T07:49:28;102530.16;;;6.67;95.01
37368;BME280;23240;43.210;27.910;2023-02-15T07:51:54;102524.19;;;7.30;91.30
37368;BME280;23240;43.210;27.910;2023-02-15T07:54:19;102519.56;;;7.57;86.55
37368;BME280;23240;43.210;27.910;2023-02-15T07:56:44;102517.38;;;7.22;85.40
37368;BME280;23240;43.210;27.910;2023-02-15T07:59:10;102512.91;;;7.23;86.57
37368;BME280;23240;43.210;27.910;2023-02-15T08:01:36;102519.97;;;7.24;85.20
37368;BME280;23240;43.210;27.910;2023-02-15T08:04:02;102510.63;;;7.36;85.63
37368;BME280;23240;43.210;27.910;2023-02-15T08:06:29;102526.53;;;7.15;82.99
37368;BME280;23240;43.210;27.910;2023-02-15T08:08:55;102522.72;;;6.99;82.26
37368;BME280;23240;43.210;27.910;2023-02-15T08:16:22;102519.34;;;7.17;79.13
37368;BME280;23240;43.210;27.910;2023-02-15T08:18:48;102527.00;;;7.27;78.14
37368;BME280;23240;43.210;27.910;2023-02-15T08:21:14;102526.66;;;7.12;78.76
37368;BME280;23240;43.210;27.910;2023-02-15T08:23:39;102522.09;;;7.16;76.28
37368;BME280;23240;43.210;27.910;2023-02-15T08:26:04;102523.34;;;7.51;74.80
37368;BME280;23240;43.210;27.910;2023-02-15T08:28:30;102528.72;;;7.93;73.48
37368;BME280;23240;43.210;27.910;2023-02-15T08:30:56;102525.47;;;8.28;72.35
37368;BME280;23240;43.210;27.910;2023-02-15T08:33:28;102519.25;;;7.64;68.50
37368;BME280;23240;43.210;27.910;2023-02-15T08:35:53;102524.50;;;7.44;70.01
37368;BME280;23240;43.210;27.910;2023-02-15T08:38:19;102518.94;;;7.05;72.70
37368;BME280;23240;43.210;27.910;2023-02-15T08:40:44;102527.28;;;7.19;73.23
37368;BME280;23240;43.210;27.910;2023-02-15T08:43:09;102532.03;;;7.56;72.34
37368;BME280;23240;43.210;27.910;2023-02-15T08:45:35;102534.78;;;7.97;69.91
37368;BME280;23240;43.210;27.910;2023-02-15T08:48:00;102545.69;;;8.13;69.35
37368;BME280;23240;43.210;27.910;2023-02-15T08:50:26;102540.81;;;7.80;68.08
37368;BME280;23240;43.210;27.910;2023-02-15T08:52:51;102550.25;;;7.89;68.29
37368;BME280;23240;43.210;27.910;2023-02-15T08:55:16;102536.75;;;7.50;68.75
37368;BME280;23240;43.210;27.910;2023-02-15T08:57:42;102538.72;;;6.99;69.07
37368;BME280;23240;43.210;27.910;2023-02-15T09:00:10;102532.44;;;7.00;70.25
37368;BME280;23240;43.210;27.910;2023-02-15T09:02:36;102530.25;;;7.11;69.91
37368;BME280;23240;43.210;27.910;2023-02-15T09:05:02;102531.53;;;7.46;69.57
37368;BME280;23240;43.210;27.910;2023-02-15T09:07:27;102540.59;;;7.64;68.09
37368;BME280;23240;43.210;27.910;2023-02-15T09:09:53;102525.19;;;7.49;68.72
37368;BME280;23240;43.210;27.910;2023-02-15T09:12:19;102516.50;;;7.44;68.61
37368;BME280;23240;43.210;27.910;2023-02-15T09:14:44;102522.66;;;7.46;68.68
37368;BME280;23240;43.210;27.910;2023-02-15T09:17:09;102518.25;;;7.67;66.68
37368;BME280;23240;43.210;27.910;2023-02-15T09:19:35;102520.47;;;7.78;65.79
37368;BME280;23240;43.210;27.910;2023-02-15T09:22:00;102514.53;;;7.71;67.02
37368;BME280;23240;43.210;27.910;2023-02-15T09:24:25;102564.41;;;7.24;67.17
37368;BME280;23240;43.210;27.910;2023-02-15T09:26:51;102519.09;;;7.24;67.46
37368;BME280;23240;43.210;27.910;2023-02-15T09:29:17;102513.28;;;7.14;67.13
37368;BME280;23240;43.210;27.910;2023-02-15T09:31:43;102519.97;;;7.02;68.18
37368;BME280;23240;43.210;27.910;2023-02-15T09:34:10;102516.66;;;7.41;68.60
37368;BME280;23240;43.210;27.910;2023-02-15T09:36:36;102522.53;;;7.71;67.39
37368;BME280;23240;43.210;27.910;2023-02-15T09:42:33;102523.03;;;7.81;66.39
37368;BME280;23240;43.210;27.910;2023-02-15T09:44:30;102520.53;;;7.98;65.63
37368;BME280;23240;43.210;27.910;2023-02-15T09:57:17;102500.25;;;8.14;63.34
37368;BME280;23240;43.210;27.910;2023-02-15T10:02:22;102500.88;;;7.79;63.00
37368;BME280;23240;43.210;27.910;2023-02-15T10:07:47;102496.91;;;8.09;62.57
37368;BME280;23240;43.210;27.910;2023-02-15T10:10:17;102494.31;;;8.08;62.38
37368;BME280;23240;43.210;27.910;2023-02-15T10:13:04;102494.72;;;7.77;63.60
37368;BME280;23240;43.210;27.910;2023-02-15T10:15:36;102490.34;;;7.96;62.66
37368;BME280;23240;43.210;27.910;2023-02-15T10:39:22;102470.47;;;8.23;60.79
37368;BME280;23240;43.210;27.910;2023-02-15T10:57:16;102460.19;;;8.14;60.15
37368;BME280;23240;43.210;27.910;2023-02-15T10:59:54;102457.66;;;8.11;59.57
37368;BME280;23240;43.210;27.910;2023-02-15T11:02:33;102468.59;;;7.85;60.18
37368;BME280;23240;43.210;27.910;2023-02-15T11:07:47;102459.16;;;7.98;60.47
37368;BME280;23240;43.210;27.910;2023-02-15T11:10:26;102462.78;;;8.16;59.53
37368;BME280;23240;43.210;27.910;2023-02-15T11:12:52;102460.66;;;8.24;59.19
37368;BME280;23240;43.210;27.910;2023-02-15T11:15:21;102463.94;;;8.10;58.72
37368;BME280;23240;43.210;27.910;2023-02-15T11:17:55;102460.44;;;7.88;59.40
37368;BME280;23240;43.210;27.910;2023-02-15T11:20:24;102463.78;;;7.72;59.84
37368;BME280;23240;43.210;27.910;2023-02-15T11:22:52;102461.50;;;7.63;59.42
37368;BME280;23240;43.210;27.910;2023-02-15T11:27:47;102460.44;;;7.88;60.05
37368;BME280;23240;43.210;27.910;2023-02-15T11:30:14;102463.53;;;7.99;59.29
37368;BME280;23240;43.210;27.910;2023-02-15T11:32:41;102465.94;;;8.05;59.36
37368;BME280;23240;43.210;27.910;2023-02-15T11:38:20;102446.75;;;8.94;58.81
37368;BME280;23240;43.210;27.910;2023-02-15T11:40:36;102455.13;;;9.06;56.94
37368;BME280;23240;43.210;27.910;2023-02-15T11:43:11;102443.81;;;8.82;57.15
37368;BME280;23240;43.210;27.910;2023-02-15T11:45:38;102452.34;;;8.50;56.79
37368;BME280;23240;43.210;27.910;2023-02-15T11:48:10;102444.78;;;8.41;56.78
37368;BME280;23240;43.210;27.910;2023-02-15T11:50:36;102443.78;;;8.23;56.75
37368;BME280;23240;43.210;27.910;2023-02-15T11:53:03;102441.78;;;8.08;56.20
37368;BME280;23240;43.210;27.910;2023-02-15T11:55:29;102436.25;;;8.13;57.30
37368;BME280;23240;43.210;27.910;2023-02-15T11:58:03;102429.03;;;8.15;56.93
37368;BME280;23240;43.210;27.910;2023-02-15T12:00:39;102434.03;;;8.02;57.13
37368;BME280;23240;43.210;27.910;2023-02-15T12:03:51;102428.72;;;7.82;57.37
37368;BME280;23240;43.210;27.910;2023-02-15T12:05:57;102432.13;;;7.65;57.53
37368;BME280;23240;43.210;27.910;2023-02-15T12:08:23;102429.56;;;7.62;57.59
37368;BME280;23240;43.210;27.910;2023-02-15T12:14:16;102413.59;;;8.21;56.95
37368;BME280;23240;43.210;27.910;2023-02-15T12:16:40;102427.88;;;8.20;55.36
37368;BME280;23240;43.210;27.910;2023-02-15T12:19:10;102430.06;;;8.12;55.17
37368;BME280;23240;43.210;27.910;2023-02-15T12:21:41;102429.56;;;8.23;55.12
37368;BME280;23240;43.210;27.910;2023-02-15T12:24:14;102426.28;;;8.16;55.97
37368;BME280;23240;43.210;27.910;2023-02-15T12:26:42;102431.16;;;8.07;55.90
37368;BME280;23240;43.210;27.910;2023-02-15T12:29:17;102420.66;;;8.04;56.07
37368;BME280;23240;43.210;27.910;2023-02-15T12:31:47;102420.69;;;8.02;56.88
37368;BME280;23240;43.210;27.910;2023-02-15T12:34:28;102414.03;;;8.12;57.06
37368;BME280;23240;43.210;27.910;2023-02-15T12:36:56;102426.09;;;8.01;57.84
37368;BME280;23240;43.210;27.910;2023-02-15T12:39:26;102421.91;;;7.95;57.77
37368;BME280;23240;43.210;27.910;2023-02-15T12:44:25;102418.19;;;7.99;57.43
37368;BME280;23240;43.210;27.910;2023-02-15T12:49:27;102413.53;;;7.84;57.59
37368;BME280;23240;43.210;27.910;2023-02-15T12:51:56;102410.22;;;7.77;57.81
37368;BME280;23240;43.210;27.910;2023-02-15T12:56:48;102417.63;;;7.70;58.66
37368;BME280;23240;43.210;27.910;2023-02-15T12:59:13;102413.28;;;7.68;58.66
37368;BME280;23240;43.210;27.910;2023-02-15T13:01:40;102414.16;;;7.68;58.73
37368;BME280;23240;43.210;27.910;2023-02-15T13:04:28;102411.84;;;7.61;59.04
37368;BME280;23240;43.210;27.910;2023-02-15T13:06:54;102417.47;;;7.53;59.12
37368;BME280;23240;43.210;27.910;2023-02-15T13:09:24;102415.47;;;7.38;60.27
37368;BME280;23240;43.210;27.910;2023-02-15T13:11:50;102414.66;;;7.36;60.59
37368;BME280;23240;43.210;27.910;2023-02-15T13:16:41;102415.09;;;7.25;61.30
37368;BME280;23240;43.210;27.910;2023-02-15T13:21:40;102411.00;;;7.38;61.66
37368;BME280;23240;43.210;27.910;2023-02-15T13:24:10;102411.75;;;7.42;61.71
37368;BME280;23240;43.210;27.910;2023-02-15T13:26:39;102404.81;;;7.58;61.51
37368;BME280;23240;43.210;27.910;2023-02-15T13:29:12;102403.50;;;7.68;60.98
37368;BME280;23240;43.210;27.910;2023-02-15T13:31:41;102407.09;;;7.88;60.71
37368;BME280;23240;43.210;27.910;2023-02-15T13:34:12;102408.03;;;7.87;60.82
37368;BME280;23240;43.210;27.910;2023-02-15T13:49:36;102407.91;;;7.69;62.10
37368;BME280;23240;43.210;27.910;2023-02-15T13:52:17;102398.22;;;7.67;62.43
37368;BME280;23240;43.210;27.910;2023-02-15T13:54:49;102399.63;;;7.76;62.63
37368;BME280;23240;43.210;27.910;2023-02-15T13:57:38;102400.56;;;7.75;62.47
37368;BME280;23240;43.210;27.910;2023-02-15T14:21:12;102401.19;;;7.39;64.37
37368;BME280;23240;43.210;27.910;2023-02-15T14:26:10;102390.28;;;7.45;62.91
37368;BME280;23240;43.210;27.910;2023-02-15T14:29:13;102407.88;;;7.49;62.90
37368;BME280;23240;43.210;27.910;2023-02-15T14:31:33;102398.78;;;7.55;62.11
37368;BME280;23240;43.210;27.910;2023-02-15T14:33:59;102403.09;;;7.57;62.09
37368;BME280;23240;43.210;27.910;2023-02-15T14:36:25;102403.16;;;7.56;61.06
37368;BME280;23240;43.210;27.910;2023-02-15T14:41:22;102404.41;;;7.47;59.78
37368;BME280;23240;43.210;27.910;2023-02-15T14:48:49;102400.03;;;7.46;58.01
37368;BME280;23240;43.210;27.910;2023-02-15T14:52:02;102399.28;;;7.42;56.83
37368;BME280;23240;43.210;27.910;2023-02-15T14:54:01;102400.47;;;7.35;56.22
37368;BME280;23240;43.210;27.910;2023-02-15T14:56:26;102392.78;;;7.28;55.82
37368;BME280;23240;43.210;27.910;2023-02-15T15:01:24;102397.81;;;7.35;55.37
37368;BME280;23240;43.210;27.910;2023-02-15T15:03:51;102402.31;;;7.33;55.66
37368;BME280;23240;43.210;27.910;2023-02-15T15:06:27;102397.63;;;7.40;55.18
37368;BME280;23240;43.210;27.910;2023-02-15T15:08:55;102392.34;;;7.38;55.25
37368;BME280;23240;43.210;27.910;2023-02-15T15:13:56;102405.84;;;7.34;54.65
37368;BME280;23240;43.210;27.910;2023-02-15T15:19:03;102406.66;;;7.36;55.16
37368;BME280;23240;43.210;27.910;2023-02-15T15:29:40;102411.13;;;7.13;55.93
37368;BME280;23240;43.210;27.910;2023-02-15T15:32:06;102403.81;;;7.18;56.21
37368;BME280;23240;43.210;27.910;2023-02-15T15:34:49;102413.00;;;7.11;56.23
37368;BME280;23240;43.210;27.910;2023-02-15T15:47:40;102411.69;;;6.78;58.27
37368;BME280;23240;43.210;27.910;2023-02-15T15:50:15;102421.75;;;6.69;58.27
37368;BME280;23240;43.210;27.910;2023-02-15T15:52:47;102422.53;;;6.73;58.60
37368;BME280;23240;43.210;27.910;2023-02-15T15:55:18;102419.22;;;6.66;58.44
37368;BME280;23240;43.210;27.910;2023-02-15T15:57:45;102420.28;;;6.62;59.10